Time;durP1;ratioP1;P1;durP2;ratioP2;P2;SDS_P1;SDS_P2;PMS_P1;PMS_P2;Temp;Humidity;BMP_temperature;BMP_pressure;BME280_temperature;BME280_humidity;BME280_pressure;Samples;Min_cycle;Max_cycle;Signal;HPM_P1;HPM_P2
2022/08/11 00:01:20;;;;;;;5.55;5.00;;;;;;;;;;5015303;28;20084;-75
2022/08/11 00:03:56;;;;;;;5.93;5.35;;;;;;;;;;5015192;28;20034;-75
2022/08/11 00:06:34;;;;;;;8.25;5.20;;;;;;;;;;5015239;28;20069;-75
2022/08/11 00:09:01;;;;;;;6.90;4.60;;;;;;;;;;5015062;28;20446;-75
2022/08/11 00:11:42;;;;;;;6.18;5.57;;;;;;;;;;5015419;28;20041;-75
2022/08/11 00:14:16;;;;;;;6.78;5.00;;;;;;;;;;5015392;28;20037;-75
2022/08/11 00:16:44;;;;;;;7.32;5.60;;;;;;;;;;5015420;28;20069;-75
2022/08/11 00:19:10;;;;;;;5.22;4.75;;;;;;;;;;5015278;28;20056;-75
2022/08/11 00:21:41;;;;;;;5.82;5.32;;;;;;;;;;5014766;28;20033;-75
2022/08/11 00:24:08;;;;;;;6.30;4.85;;;;;;;;;;5015132;28;20062;-75
2022/08/11 00:26:35;;;;;;;6.72;4.93;;;;;;;;;;5014944;28;20048;-75
2022/08/11 00:29:08;;;;;;;6.07;5.32;;;;;;;;;;5014765;28;20046;-75
2022/08/11 00:31:35;;;;;;;5.43;4.93;;;;;;;;;;5014854;28;20095;-75
2022/08/11 00:34:02;;;;;;;7.38;5.50;;;;;;;;;;5014578;28;20061;-75
2022/08/11 00:36:48;;;;;;;5.60;5.10;;;;;;;;;;5014658;28;20069;-75
2022/08/11 00:39:17;;;;;;;5.30;4.88;;;;;;;;;;5015343;28;20058;-74
2022/08/11 00:42:02;;;;;;;5.57;5.13;;;;;;;;;;5015233;28;20049;-75
2022/08/11 00:44:36;;;;;;;6.45;5.10;;;;;;;;;;5014535;28;20037;-75
2022/08/11 00:47:14;;;;;;;5.75;5.22;;;;;;;;;;5014330;28;20046;-75
2022/08/11 00:49:40;;;;;;;6.00;5.40;;;;;;;;;;5014767;28;20123;-75
2022/08/11 00:52:33;;;;;;;6.60;5.75;;;;;;;;;;5014521;28;20046;-75
2022/08/11 00:55:37;;;;;;;5.47;4.97;;;;;;;;;;5014803;28;20048;-75
2022/08/11 00:58:22;;;;;;;5.63;5.13;;;;;;;;;;4934466;29;20083;-75
2022/08/11 01:01:06;;;;;;;6.82;4.97;;;;;;;;;;4934628;29;20523;-74
2022/08/11 01:03:38;;;;;;;6.45;5.50;;;;;;;;;;4992331;28;20544;-75
2022/08/11 01:06:17;;;;;;;7.07;5.65;;;;;;;;;;5014703;28;20045;-75
2022/08/11 01:08:57;;;;;;;6.20;5.60;;;;;;;;;;5014323;28;20042;-75
2022/08/11 01:11:24;;;;;;;5.90;5.40;;;;;;;;;;5014934;28;20046;-75
2022/08/11 01:13:53;;;;;;;8.32;5.13;;;;;;;;;;5014295;28;20049;-75
2022/08/11 01:16:38;;;;;;;4.97;4.57;;;;;;;;;;5014325;28;20034;-75
2022/08/11 01:19:20;;;;;;;5.80;5.30;;;;;;;;;;5014507;28;20481;-75
2022/08/11 01:22:06;;;;;;;6.00;5.50;;;;;;;;;;5013570;28;20044;-75
2022/08/11 01:24:50;;;;;;;5.85;5.13;;;;;;;;;;5013552;28;20052;-75
2022/08/11 01:27:34;;;;;;;5.72;5.18;;;;;;;;;;5012976;28;20068;-75
2022/08/11 01:30:02;;;;;;;6.10;5.35;;;;;;;;;;5014114;28;20054;-75
2022/08/11 01:32:28;;;;;;;6.38;5.60;;;;;;;;;;5013872;28;20534;-75
2022/08/11 01:34:57;;;;;;;6.63;5.65;;;;;;;;;;5014120;28;20048;-75
2022/08/11 01:37:36;;;;;;;6.38;5.78;;;;;;;;;;5014023;28;20042;-75
2022/08/11 01:40:02;;;;;;;6.72;5.65;;;;;;;;;;5014342;28;20046;-75
2022/08/11 01:45:22;;;;;;;6.05;5.55;;;;;;;;;;5013755;28;20056;-75
2022/08/11 01:48:04;;;;;;;8.70;5.47;;;;;;;;;;5014542;28;20513;-75
2022/08/11 01:50:30;;;;;;;5.60;5.03;;;;;;;;;;5017397;28;20060;-75
2022/08/11 01:53:08;;;;;;;5.30;4.72;;;;;;;;;;5017523;28;20041;-75
2022/08/11 01:55:43;;;;;;;5.35;4.95;;;;;;;;;;5017547;28;20033;-75
2022/08/11 01:58:09;;;;;;;6.47;5.32;;;;;;;;;;5017539;28;20050;-75
2022/08/11 02:00:47;;;;;;;5.88;5.13;;;;;;;;;;5017879;28;20048;-75
2022/08/11 02:03:20;;;;;;;5.88;5.15;;;;;;;;;;5017274;28;20050;-75
2022/08/11 02:06:53;;;;;;;6.35;5.78;;;;;;;;;;5017742;28;20041;-75
2022/08/11 02:09:09;;;;;;;5.70;5.10;;;;;;;;;;5016939;28;20517;-75
2022/08/11 02:11:37;;;;;;;5.60;5.20;;;;;;;;;;5017388;28;20053;-75
2022/08/11 02:14:15;;;;;;;5.90;5.28;;;;;;;;;;5017279;28;20463;-75
2022/08/11 02:17:00;;;;;;;5.60;5.07;;;;;;;;;;5017794;28;20081;-75
2022/08/11 02:25:42;;;;;;;6.25;5.65;;;;;;;;;;4996906;28;20092;-75
2022/08/11 02:28:11;;;;;;;11.02;5.60;;;;;;;;;;5017572;28;20125;-75
2022/08/11 02:30:40;;;;;;;6.78;5.15;;;;;;;;;;5017142;28;20128;-75
2022/08/11 02:33:24;;;;;;;6.20;5.63;;;;;;;;;;4999101;28;20045;-75
2022/08/11 02:35:56;;;;;;;6.03;5.53;;;;;;;;;;5017514;28;20084;-75
2022/08/11 02:38:42;;;;;;;6.20;5.25;;;;;;;;;;5014833;28;20046;-75
2022/08/11 02:44:11;;;;;;;6.68;5.40;;;;;;;;;;5016096;28;20037;-75
2022/08/11 02:46:57;;;;;;;5.60;5.07;;;;;;;;;;5016385;28;20408;-75
2022/08/11 02:52:19;;;;;;;7.07;5.20;;;;;;;;;;5016308;28;20616;-75
2022/08/11 02:54:45;;;;;;;6.35;5.68;;;;;;;;;;4998944;28;20087;-75
2022/08/11 02:57:18;;;;;;;6.15;5.53;;;;;;;;;;5016463;28;20038;-75
2022/08/11 02:59:50;;;;;;;5.75;5.15;;;;;;;;;;5016290;28;20045;-75
2022/08/11 03:02:31;;;;;;;5.95;5.38;;;;;;;;;;5016437;28;20036;-75
2022/08/11 03:05:01;;;;;;;7.43;5.63;;;;;;;;;;5016252;28;20045;-75
2022/08/11 03:07:45;;;;;;;5.72;5.18;;;;;;;;;;5016885;28;20493;-75
2022/08/11 03:10:32;;;;;;;6.22;5.63;;;;;;;;;;5016254;28;20501;-74
2022/08/11 03:18:59;;;;;;;6.72;6.05;;;;;;;;;;5015690;28;20444;-74
2022/08/11 03:21:30;;;;;;;6.28;5.35;;;;;;;;;;5016206;28;20045;-74
2022/08/11 03:24:13;;;;;;;6.38;5.78;;;;;;;;;;5016365;28;20092;-75
2022/08/11 03:26:52;;;;;;;6.07;5.50;;;;;;;;;;5016376;28;20072;-75
2022/08/11 03:29:37;;;;;;;6.03;5.53;;;;;;;;;;5016187;28;20084;-75
2022/08/11 03:32:12;;;;;;;5.88;5.28;;;;;;;;;;5016202;28;20123;-75
2022/08/11 03:34:39;;;;;;;6.38;5.78;;;;;;;;;;5016056;28;20034;-74
2022/08/11 03:37:05;;;;;;;6.35;5.40;;;;;;;;;;5016390;28;20050;-75
2022/08/11 03:39:34;;;;;;;8.00;5.88;;;;;;;;;;5016173;28;20488;-74
2022/08/11 03:42:00;;;;;;;5.78;5.28;;;;;;;;;;5015970;28;20052;-75
2022/08/11 03:44:54;;;;;;;6.50;5.45;;;;;;;;;;5015735;28;20616;-74
2022/08/11 03:47:38;;;;;;;6.07;5.50;;;;;;;;;;5011827;28;20050;-75
2022/08/11 03:50:16;;;;;;;10.15;5.40;;;;;;;;;;5016097;28;20053;-75
2022/08/11 03:52:51;;;;;;;6.25;5.65;;;;;;;;;;5016015;28;20069;-75
2022/08/11 03:55:47;;;;;;;6.10;5.50;;;;;;;;;;5015984;28;20036;-75
2022/08/11 03:58:13;;;;;;;8.65;4.95;;;;;;;;;;4945823;28;20046;-75
2022/08/11 04:00:53;;;;;;;6.63;5.22;;;;;;;;;;5016081;28;20042;-74
2022/08/11 04:03:29;;;;;;;6.22;5.65;;;;;;;;;;5015420;28;20040;-75
2022/08/11 04:06:01;;;;;;;5.72;5.00;;;;;;;;;;5015726;28;20056;-74
2022/08/11 04:08:43;;;;;;;5.38;4.88;;;;;;;;;;5015866;28;20042;-75
2022/08/11 04:11:38;;;;;;;5.40;5.00;;;;;;;;;;5014704;28;20054;-74
2022/08/11 04:17:27;;;;;;;5.20;4.65;;;;;;;;;;5015229;28;20554;-74
2022/08/11 04:20:12;;;;;;;6.10;5.30;;;;;;;;;;5015793;28;20050;-74
2022/08/11 04:22:49;;;;;;;6.35;4.80;;;;;;;;;;5015797;28;20043;-74
2022/08/11 04:25:29;;;;;;;5.82;5.32;;;;;;;;;;5015537;28;20050;-74
2022/08/11 04:28:14;;;;;;;5.15;4.75;;;;;;;;;;5015999;28;20042;-74
2022/08/11 04:30:40;;;;;;;8.52;5.35;;;;;;;;;;5015451;28;20053;-74
2022/08/11 04:33:09;;;;;;;7.10;5.13;;;;;;;;;;5015205;28;20111;-74
2022/08/11 04:35:42;;;;;;;5.95;5.10;;;;;;;;;;5015249;28;20042;-74
2022/08/11 04:38:23;;;;;;;6.97;5.72;;;;;;;;;;5015234;28;20046;-74
2022/08/11 04:40:55;;;;;;;7.65;5.32;;;;;;;;;;5015016;28;20417;-74
2022/08/11 04:43:37;;;;;;;6.40;5.03;;;;;;;;;;5015173;28;20038;-75
2022/08/11 04:46:12;;;;;;;8.32;5.50;;;;;;;;;;5015248;28;20050;-75
2022/08/11 05:03:28;;;;;;;6.00;5.40;;;;;;;;;;5014004;28;20037;-76
2022/08/11 05:06:27;;;;;;;5.78;5.28;;;;;;;;;;5014811;28;20050;-75
2022/08/11 05:08:55;;;;;;;5.50;5.00;;;;;;;;;;4971275;28;20042;-76
2022/08/11 05:11:25;;;;;;;7.63;6.03;;;;;;;;;;5014588;28;20060;-75
2022/08/11 05:36:40;;;;;;;6.20;5.38;;;;;;;;;;5017905;28;20033;-76
2022/08/11 05:58:35;;;;;;;6.10;4.93;;;;;;;;;;5017737;28;20505;-76
2022/08/11 06:01:02;;;;;;;5.97;5.18;;;;;;;;;;5018304;28;20037;-76
2022/08/11 06:03:29;;;;;;;6.22;5.28;;;;;;;;;;5017971;28;20046;-76
2022/08/11 06:05:57;;;;;;;5.72;4.85;;;;;;;;;;5000414;28;20092;-72
2022/08/11 06:08:34;;;;;;;5.93;5.38;;;;;;;;;;5018109;28;20112;-73
2022/08/11 06:11:03;;;;;;;7.97;5.18;;;;;;;;;;5017815;28;20049;-73
2022/08/11 06:13:29;;;;;;;7.35;5.15;;;;;;;;;;5018395;28;20068;-73
2022/08/11 06:15:56;;;;;;;6.50;5.07;;;;;;;;;;5017870;28;20100;-73
2022/08/11 06:18:23;;;;;;;6.00;5.50;;;;;;;;;;5018086;28;20038;-73
2022/08/11 06:20:53;;;;;;;9.27;5.88;;;;;;;;;;5018060;28;20125;-72
2022/08/11 06:23:22;;;;;;;9.38;5.78;;;;;;;;;;5017440;28;20038;-73
2022/08/11 06:25:51;;;;;;;5.43;5.03;;;;;;;;;;5017754;28;20037;-72
2022/08/11 06:28:19;;;;;;;6.20;5.20;;;;;;;;;;5017288;28;20042;-73
2022/08/11 06:30:46;;;;;;;5.53;5.13;;;;;;;;;;5017438;28;20046;-73
2022/08/11 06:33:14;;;;;;;6.38;4.70;;;;;;;;;;5017270;28;20049;-73
2022/08/11 06:35:59;;;;;;;5.95;5.15;;;;;;;;;;5016751;28;20183;-73
2022/08/11 06:38:43;;;;;;;6.00;5.50;;;;;;;;;;5017992;28;20038;-73
2022/08/11 06:41:30;;;;;;;5.93;5.30;;;;;;;;;;5017119;28;20045;-73
2022/08/11 06:44:06;;;;;;;9.32;5.35;;;;;;;;;;5017500;28;20497;-73
2022/08/11 06:46:38;;;;;;;7.18;5.50;;;;;;;;;;5017371;28;20042;-73
2022/08/11 06:51:10;;;;;;;7.55;5.22;;;;;;;;;;5017120;28;20053;-73
2022/08/11 06:51:53;;;;;;;9.10;5.07;;;;;;;;;;5016577;28;20179;-73
2022/08/11 06:54:20;;;;;;;9.35;6.00;;;;;;;;;;5017765;28;20045;-73
2022/08/11 07:02:21;;;;;;;7.38;5.80;;;;;;;;;;5016377;28;20584;-73
2022/08/11 07:04:49;;;;;;;10.15;5.22;;;;;;;;;;5016665;28;20042;-73
2022/08/11 07:16:01;;;;;;;10.10;5.65;;;;;;;;;;5016314;28;20515;-73
2022/08/11 07:29:42;;;;;;;12.05;5.65;;;;;;;;;;5015958;28;20091;-73
2022/08/11 07:32:22;;;;;;;8.18;5.65;;;;;;;;;;5016682;28;20045;-73
2022/08/11 07:34:52;;;;;;;8.38;4.82;;;;;;;;;;5016168;28;20041;-73
2022/08/11 07:37:19;;;;;;;6.50;5.63;;;;;;;;;;5016637;28;20046;-73
2022/08/11 07:39:47;;;;;;;7.57;5.57;;;;;;;;;;5016333;28;20292;-73
2022/08/11 07:42:14;;;;;;;5.53;4.93;;;;;;;;;;5016287;28;20038;-72
2022/08/11 07:52:59;;;;;;;8.68;4.82;;;;;;;;;;5015150;28;20505;-74
2022/08/11 07:55:30;;;;;;;8.15;5.20;;;;;;;;;;5015704;28;20041;-73
2022/08/11 08:20:06;;;;;;;6.97;5.13;;;;;;;;;;5014474;28;20099;-72
2022/08/11 08:22:34;;;;;;;6.85;5.22;;;;;;;;;;5014164;28;20115;-70
2022/08/11 08:25:00;;;;;;;6.63;4.95;;;;;;;;;;5014445;28;20076;-70
2022/08/11 08:27:26;;;;;;;6.53;4.55;;;;;;;;;;5014757;28;20113;-69
2022/08/11 08:32:38;;;;;;;5.68;5.18;;;;;;;;;;5014253;28;20096;-72
2022/08/11 08:35:06;;;;;;;6.38;5.63;;;;;;;;;;5014593;28;20034;-72
2022/08/11 08:37:32;;;;;;;8.30;5.90;;;;;;;;;;5002934;28;20049;-73
2022/08/11 08:39:58;;;;;;;5.85;5.43;;;;;;;;;;5013923;28;20037;-73
2022/08/11 08:42:37;;;;;;;5.47;5.00;;;;;;;;;;5013827;28;20553;-69
2022/08/11 08:45:05;;;;;;;5.80;5.22;;;;;;;;;;5014086;28;20046;-69
2022/08/11 08:47:35;;;;;;;6.30;5.22;;;;;;;;;;5014639;28;20087;-68
2022/08/11 08:50:05;;;;;;;5.35;4.85;;;;;;;;;;5013807;28;20058;-69
2022/08/11 08:52:34;;;;;;;9.70;5.50;;;;;;;;;;5013232;28;20052;-69
2022/08/11 08:55:04;;;;;;;9.07;5.82;;;;;;;;;;5002207;28;20034;-69
2022/08/11 08:57:32;;;;;;;6.70;5.22;;;;;;;;;;5008853;28;20056;-69
2022/08/11 08:59:59;;;;;;;5.97;5.35;;;;;;;;;;5013446;28;20042;-69
2022/08/11 09:02:26;;;;;;;5.88;5.32;;;;;;;;;;5013710;28;20050;-68
2022/08/11 09:04:53;;;;;;;5.95;5.35;;;;;;;;;;5014628;28;20048;-69
2022/08/11 09:07:20;;;;;;;6.57;5.57;;;;;;;;;;5015041;28;20076;-68
2022/08/11 09:09:51;;;;;;;5.72;5.22;;;;;;;;;;5014577;28;20042;-69
2022/08/11 09:12:20;;;;;;;6.40;5.43;;;;;;;;;;5014973;28;20042;-68
2022/08/11 09:14:59;;;;;;;6.20;5.55;;;;;;;;;;5014574;28;20053;-68
2022/08/11 09:17:26;;;;;;;5.43;5.03;;;;;;;;;;5014424;28;20185;-69
2022/08/11 09:20:00;;;;;;;5.45;4.53;;;;;;;;;;5015134;28;20041;-69
2022/08/11 09:27:57;;;;;;;4.95;4.40;;;;;;;;;;5014011;28;20044;-69
2022/08/11 09:30:27;;;;;;;6.28;4.80;;;;;;;;;;5014336;28;20049;-69
2022/08/11 09:33:03;;;;;;;4.93;4.53;;;;;;;;;;5014005;28;20038;-69
2022/08/11 09:35:31;;;;;;;7.25;4.70;;;;;;;;;;5014168;28;20169;-69
2022/08/11 09:40:44;;;;;;;5.90;5.00;;;;;;;;;;4999320;28;20044;-69
2022/08/11 09:45:58;;;;;;;6.38;4.03;;;;;;;;;;5013858;28;20045;-69
2022/08/11 09:48:25;;;;;;;5.75;4.95;;;;;;;;;;5014395;28;20528;-69
2022/08/11 09:50:52;;;;;;;4.90;4.47;;;;;;;;;;5014137;28;20053;-69
2022/08/11 09:53:19;;;;;;;5.43;4.60;;;;;;;;;;5014570;28;20508;-69
2022/08/11 09:55:46;;;;;;;6.07;4.13;;;;;;;;;;5014227;28;20053;-69
2022/08/11 09:58:13;;;;;;;4.63;4.28;;;;;;;;;;5014144;28;20397;-69
2022/08/11 10:00:40;;;;;;;5.15;4.75;;;;;;;;;;5014213;28;20045;-69
2022/08/11 10:03:08;;;;;;;6.75;4.72;;;;;;;;;;5014280;28;20056;-69
2022/08/11 10:08:22;;;;;;;5.57;4.57;;;;;;;;;;5014180;28;20627;-69
2022/08/11 10:10:48;;;;;;;6.95;4.57;;;;;;;;;;5017890;28;20074;-69
2022/08/11 10:13:20;;;;;;;5.38;4.93;;;;;;;;;;5017915;28;20041;-69
2022/08/11 10:15:47;;;;;;;5.45;4.60;;;;;;;;;;5017625;28;20133;-69
2022/08/11 10:21:04;;;;;;;6.90;4.80;;;;;;;;;;5017293;28;20499;-70
2022/08/11 10:34:37;;;;;;;5.70;5.10;;;;;;;;;;5016205;28;20073;-72
2022/08/11 10:37:05;;;;;;;11.68;5.45;;;;;;;;;;5006584;28;20069;-70
2022/08/11 10:39:32;;;;;;;5.40;4.90;;;;;;;;;;5010360;28;20539;-69
2022/08/11 10:44:45;;;;;;;5.93;5.25;;;;;;;;;;5015718;28;20065;-69
2022/08/11 11:00:59;;;;;;;6.13;5.50;;;;;;;;;;4995818;28;20583;-69
2022/08/11 11:03:27;;;;;;;7.65;5.78;;;;;;;;;;4996716;28;20042;-69
2022/08/11 11:05:56;;;;;;;5.85;5.35;;;;;;;;;;4996604;28;20121;-70
2022/08/11 11:11:14;;;;;;;6.57;6.07;;;;;;;;;;4977305;28;20516;-76
2022/08/11 11:19:17;;;;;;;9.95;5.78;;;;;;;;;;4996650;28;20604;-72
2022/08/11 11:21:45;;;;;;;8.90;5.97;;;;;;;;;;4995986;28;20030;-70
2022/08/11 11:24:32;;;;;;;9.75;6.03;;;;;;;;;;4996852;28;20092;-75
2022/08/11 11:27:25;;;;;;;5.93;5.13;;;;;;;;;;4996242;28;20038;-73
2022/08/11 11:29:53;;;;;;;9.20;5.30;;;;;;;;;;4985736;28;20057;-67
2022/08/11 11:32:26;;;;;;;6.72;5.32;;;;;;;;;;4992714;28;20065;-74
2022/08/11 11:34:52;;;;;;;6.20;5.57;;;;;;;;;;4991347;28;20053;-71
2022/08/11 11:37:19;;;;;;;6.43;4.80;;;;;;;;;;4996555;28;20034;-74
2022/08/11 11:39:45;;;;;;;6.95;5.88;;;;;;;;;;4996816;28;20110;-73
2022/08/11 11:42:12;;;;;;;7.18;5.22;;;;;;;;;;4995680;28;20042;-74
2022/08/11 11:44:38;;;;;;;7.00;4.50;;;;;;;;;;4996603;28;20034;-71
2022/08/11 11:47:05;;;;;;;16.40;5.88;;;;;;;;;;4993822;28;20077;-72
2022/08/11 11:49:34;;;;;;;7.50;5.15;;;;;;;;;;5013807;28;20536;-72
2022/08/11 11:52:00;;;;;;;5.97;4.95;;;;;;;;;;5003644;28;20144;-75
2022/08/11 11:54:32;;;;;;;6.80;4.97;;;;;;;;;;5012363;28;20042;-72
2022/08/11 12:01:14;;;;;;;5.65;4.50;;;;;;;;;;5014843;28;20048;-72
2022/08/11 12:02:36;;;;;;;10.02;4.85;;;;;;;;;;5013540;28;20409;-72
2022/08/11 12:05:02;;;;;;;7.93;5.22;;;;;;;;;;5015265;28;20042;-72
2022/08/11 12:10:16;;;;;;;5.65;5.00;;;;;;;;;;5014541;28;20049;-74
2022/08/11 12:15:27;;;;;;;7.68;5.07;;;;;;;;;;5014570;28;20044;-73
2022/08/11 12:17:55;;;;;;;7.20;4.63;;;;;;;;;;5014097;28;20049;-73
2022/08/11 12:20:21;;;;;;;8.65;4.70;;;;;;;;;;5015231;28;20041;-72
2022/08/11 12:28:23;;;;;;;6.88;4.72;;;;;;;;;;5014603;28;20048;-72
2022/08/11 12:30:51;;;;;;;9.25;4.82;;;;;;;;;;5015029;28;20073;-73
2022/08/11 12:33:17;;;;;;;5.80;5.30;;;;;;;;;;5014064;28;20493;-72
2022/08/11 12:38:49;;;;;;;6.68;4.72;;;;;;;;;;5015119;28;20028;-73
2022/08/11 12:47:05;;;;;;;4.78;4.32;;;;;;;;;;5013745;28;20129;-74
2022/08/11 12:52:22;;;;;;;5.10;4.40;;;;;;;;;;5012964;28;20578;-73
2022/08/11 12:54:50;;;;;;;5.88;4.15;;;;;;;;;;5013951;28;20068;-73
2022/08/11 13:05:35;;;;;;;6.63;4.28;;;;;;;;;;5011281;28;20071;-73
2022/08/11 13:08:02;;;;;;;4.30;3.90;;;;;;;;;;5013586;28;20038;-75
2022/08/11 13:13:17;;;;;;;6.82;4.57;;;;;;;;;;5005307;28;20072;-76
2022/08/11 13:15:48;;;;;;;4.22;3.60;;;;;;;;;;5012884;28;20030;-79
2022/08/11 13:18:26;;;;;;;5.03;4.00;;;;;;;;;;4996883;28;20045;-77
2022/08/11 13:20:55;;;;;;;4.15;3.83;;;;;;;;;;5009364;28;20038;-77
2022/08/11 13:23:22;;;;;;;4.88;3.70;;;;;;;;;;5011996;28;20088;-74
2022/08/11 13:25:49;;;;;;;5.75;3.80;;;;;;;;;;5010175;28;20083;-79
2022/08/11 13:28:16;;;;;;;6.63;3.90;;;;;;;;;;5011465;28;20053;-77
2022/08/11 13:33:28;;;;;;;5.03;3.80;;;;;;;;;;5012362;28;20037;-77
2022/08/11 13:35:54;;;;;;;3.90;3.60;;;;;;;;;;5013712;28;20088;-76
2022/08/11 13:38:22;;;;;;;4.13;3.83;;;;;;;;;;5008960;28;20034;-76
2022/08/11 13:40:52;;;;;;;5.55;4.40;;;;;;;;;;5004472;28;20042;-76
2022/08/11 13:43:19;;;;;;;4.00;3.72;;;;;;;;;;4999137;28;20164;-76
2022/08/11 13:45:47;;;;;;;4.20;3.65;;;;;;;;;;5004135;28;20197;-74
2022/08/11 13:48:14;;;;;;;6.93;3.72;;;;;;;;;;5017723;28;20136;-76
2022/08/11 13:53:26;;;;;;;4.75;4.18;;;;;;;;;;5017837;28;20048;-75
2022/08/11 13:55:53;;;;;;;10.77;4.47;;;;;;;;;;5019116;28;20112;-76
2022/08/11 13:58:22;;;;;;;8.90;4.22;;;;;;;;;;5017904;28;20046;-76
2022/08/11 14:00:49;;;;;;;5.10;3.67;;;;;;;;;;5017920;28;20042;-75
2022/08/11 14:03:17;;;;;;;5.85;3.88;;;;;;;;;;5017994;28;20052;-76
2022/08/11 14:05:47;;;;;;;6.05;4.10;;;;;;;;;;5018213;28;20148;-75
2022/08/11 14:08:16;;;;;;;3.85;3.55;;;;;;;;;;5018297;28;20053;-75
2022/08/11 14:10:43;;;;;;;4.00;3.63;;;;;;;;;;5017901;28;20046;-75
2022/08/11 14:16:01;;;;;;;3.72;3.42;;;;;;;;;;5017975;28;20064;-76
2022/08/11 14:18:29;;;;;;;6.60;3.60;;;;;;;;;;5017743;28;20042;-76
2022/08/11 14:23:54;;;;;;;5.95;3.67;;;;;;;;;;5017282;28;20045;-76
2022/08/11 14:26:26;;;;;;;4.72;3.55;;;;;;;;;;5017834;28;20445;-75
2022/08/11 14:28:53;;;;;;;4.38;3.63;;;;;;;;;;5017592;28;20070;-76
2022/08/11 14:31:21;;;;;;;3.80;3.50;;;;;;;;;;5017523;28;20132;-76
2022/08/11 14:33:47;;;;;;;5.63;3.80;;;;;;;;;;5017506;28;20038;-76
2022/08/11 14:36:14;;;;;;;4.32;3.97;;;;;;;;;;5017568;28;20091;-76
2022/08/11 14:38:40;;;;;;;4.20;3.80;;;;;;;;;;5017235;28;20045;-75
2022/08/11 14:49:23;;;;;;;3.72;3.40;;;;;;;;;;5017186;28;20061;-76
2022/08/11 14:51:52;;;;;;;3.53;3.22;;;;;;;;;;5016747;28;20046;-75
2022/08/11 14:57:03;;;;;;;5.22;4.03;;;;;;;;;;5015717;28;20041;-76
2022/08/11 14:59:29;;;;;;;3.65;3.35;;;;;;;;;;5016872;28;20044;-75
2022/08/11 15:04:41;;;;;;;4.05;3.70;;;;;;;;;;5016482;28;20088;-75
2022/08/11 15:07:09;;;;;;;5.30;3.80;;;;;;;;;;5016203;28;20579;-75
2022/08/11 15:09:35;;;;;;;4.70;3.63;;;;;;;;;;5016761;28;20034;-76
2022/08/11 15:12:07;;;;;;;4.70;3.72;;;;;;;;;;5016327;28;20580;-76
2022/08/11 15:17:19;;;;;;;4.07;3.63;;;;;;;;;;5015866;28;20088;-76
2022/08/11 15:25:16;;;;;;;5.57;3.55;;;;;;;;;;5015896;28;20040;-75
2022/08/11 15:38:57;;;;;;;4.30;3.63;;;;;;;;;;4995665;28;20575;-76
2022/08/11 15:47:01;;;;;;;7.43;4.18;;;;;;;;;;4994800;28;20457;-76
2022/08/11 15:49:36;;;;;;;6.05;4.05;;;;;;;;;;4994958;28;20058;-76
2022/08/11 15:52:06;;;;;;;3.90;3.60;;;;;;;;;;4995848;28;20517;-76
2022/08/11 15:54:33;;;;;;;9.55;4.07;;;;;;;;;;4996190;28;20046;-76
2022/08/11 15:57:00;;;;;;;4.45;3.70;;;;;;;;;;4995558;28;20536;-76
2022/08/11 16:05:05;;;;;;;4.75;3.60;;;;;;;;;;4994929;28;20089;-77
2022/08/11 16:07:34;;;;;;;5.65;3.97;;;;;;;;;;4995423;28;20038;-76
2022/08/11 16:10:08;;;;;;;5.18;4.00;;;;;;;;;;4995638;28;20112;-76
2022/08/11 16:12:40;;;;;;;4.68;3.65;;;;;;;;;;4995276;28;20034;-76
2022/08/11 16:17:53;;;;;;;6.80;3.95;;;;;;;;;;4995210;28;20049;-76
2022/08/11 16:20:20;;;;;;;4.35;3.55;;;;;;;;;;4995416;28;20047;-75
2022/08/11 16:22:48;;;;;;;4.40;4.00;;;;;;;;;;4994625;28;20053;-76
2022/08/11 16:25:17;;;;;;;5.88;3.85;;;;;;;;;;4995375;28;20100;-76
2022/08/11 16:27:46;;;;;;;3.95;3.53;;;;;;;;;;4994941;28;20057;-76
2022/08/11 16:30:13;;;;;;;4.30;3.90;;;;;;;;;;4994497;28;20133;-77
2022/08/11 16:32:41;;;;;;;4.32;3.88;;;;;;;;;;4994414;28;20038;-76
2022/08/11 16:40:41;;;;;;;4.85;4.13;;;;;;;;;;4994333;28;20057;-76
2022/08/11 16:48:40;;;;;;;4.32;3.90;;;;;;;;;;4993707;28;20065;-76
2022/08/11 16:51:07;;;;;;;5.10;4.03;;;;;;;;;;4994490;28;20104;-76
2022/08/11 16:53:33;;;;;;;4.45;3.95;;;;;;;;;;4994387;28;20129;-77
2022/08/11 16:56:02;;;;;;;4.32;3.92;;;;;;;;;;5002351;28;20037;-76
2022/08/11 17:01:16;;;;;;;4.15;3.75;;;;;;;;;;5013711;28;20045;-79
2022/08/11 17:14:53;;;;;;;5.18;4.30;;;;;;;;;;4994823;28;20050;-77
2022/08/11 17:17:25;;;;;;;11.32;4.88;;;;;;;;;;4994514;28;20462;-75
2022/08/11 17:19:54;;;;;;;4.60;4.07;;;;;;;;;;4997568;28;20050;-77
2022/08/11 17:25:06;;;;;;;5.13;4.30;;;;;;;;;;5017853;28;20049;-76
2022/08/11 17:27:34;;;;;;;4.55;4.15;;;;;;;;;;5017853;28;20520;-78
2022/08/11 17:30:02;;;;;;;4.22;3.88;;;;;;;;;;5018200;28;20052;-78
2022/08/11 17:35:33;;;;;;;6.20;4.82;;;;;;;;;;5017156;28;20087;-75
2022/08/11 17:38:07;;;;;;;4.80;4.38;;;;;;;;;;5017158;28;20045;-77
2022/08/11 17:40:37;;;;;;;5.30;4.22;;;;;;;;;;5017160;28;20038;-78
2022/08/11 17:48:37;;;;;;;4.60;4.20;;;;;;;;;;5016503;28;20056;-81
2022/08/11 17:51:08;;;;;;;7.47;4.65;;;;;;;;;;4998323;28;20058;-77
2022/08/11 18:01:54;;;;;;;5.53;4.90;;;;;;;;;;5006525;28;20048;-80
2022/08/11 18:04:21;;;;;;;5.68;5.20;;;;;;;;;;5017395;28;20029;-78
2022/08/11 18:06:49;;;;;;;5.97;4.72;;;;;;;;;;5016704;28;20505;-78
